Time;durP1;ratioP1;P1;durP2;ratioP2;P2;SDS_P1;SDS_P2;PMS_P1;PMS_P2;Temp;Humidity;BMP_temperature;BMP_pressure;BME280_temperature;BME280_humidity;BME280_pressure;Samples;Min_cycle;Max_cycle;Signal;HPM_P1;HPM_P2
2023/03/12 00:02:08;;;;;;;18.10;8.30;;;0.70;99.90;;;;;;5093620;28;20116;-77
2023/03/12 00:04:35;;;;;;;15.73;7.97;;;0.70;99.90;;;;;;5094542;28;20467;-77
2023/03/12 00:07:02;;;;;;;16.70;7.85;;;0.60;99.90;;;;;;5093772;28;20044;-77
2023/03/12 00:09:28;;;;;;;19.05;9.00;;;0.60;99.90;;;;;;5093667;28;20047;-77
2023/03/12 00:11:54;;;;;;;26.90;9.97;;;0.70;99.90;;;;;;5093473;28;20044;-77
2023/03/12 00:14:20;;;;;;;19.97;9.13;;;0.70;99.90;;;;;;5093612;28;20089;-77
2023/03/12 00:16:45;;;;;;;11.40;6.00;;;0.70;99.90;;;;;;5093560;28;20052;-77
2023/03/12 00:19:12;;;;;;;11.50;5.77;;;0.70;99.90;;;;;;5094384;28;20468;-77
2023/03/12 00:21:38;;;;;;;13.32;5.35;;;0.70;99.90;;;;;;5093446;28;20426;-77
2023/03/12 00:24:04;;;;;;;9.55;5.03;;;0.70;99.90;;;;;;5093981;28;20051;-77
2023/03/12 00:26:30;;;;;;;10.87;4.97;;;0.70;99.90;;;;;;5093485;28;20052;-77
2023/03/12 00:28:56;;;;;;;8.32;5.18;;;0.70;99.90;;;;;;5100196;28;20091;-77
2023/03/12 00:31:28;;;;;;;10.10;6.03;;;0.70;99.90;;;;;;5099107;28;20083;-77
2023/03/12 00:33:54;;;;;;;10.13;5.57;;;0.70;99.90;;;;;;5100267;28;20048;-77
2023/03/12 00:36:23;;;;;;;11.57;4.80;;;0.70;99.90;;;;;;5083018;28;20054;-77
2023/03/12 00:38:50;;;;;;;11.88;5.13;;;0.70;99.90;;;;;;5099178;28;20067;-77
2023/03/12 00:41:18;;;;;;;17.25;6.93;;;0.70;99.90;;;;;;5100011;28;20073;-77
2023/03/12 00:43:44;;;;;;;18.35;6.68;;;0.70;99.90;;;;;;5081667;28;20492;-77
2023/03/12 00:46:10;;;;;;;14.85;7.03;;;0.70;99.90;;;;;;5098596;28;20067;-77
2023/03/12 00:48:36;;;;;;;12.97;6.43;;;0.60;99.90;;;;;;5066266;28;20456;-77
2023/03/12 00:51:02;;;;;;;9.10;5.50;;;0.70;99.90;;;;;;5098977;28;20056;-77
2023/03/12 00:53:27;;;;;;;10.57;5.90;;;0.60;99.90;;;;;;5100399;28;20056;-77
2023/03/12 00:55:53;;;;;;;13.13;5.30;;;0.70;99.90;;;;;;5100779;28;20052;-77
2023/03/12 00:58:19;;;;;;;11.87;5.87;;;0.60;99.90;;;;;;5100210;28;20396;-77
2023/03/12 01:00:45;;;;;;;15.37;5.93;;;0.60;99.90;;;;;;5099121;28;20040;-77
2023/03/12 01:03:11;;;;;;;9.67;5.23;;;0.60;99.90;;;;;;5098703;28;20101;-77
2023/03/12 01:05:39;;;;;;;12.80;5.88;;;0.70;99.90;;;;;;5099952;28;20051;-77
2023/03/12 01:08:09;;;;;;;13.40;5.82;;;0.60;99.90;;;;;;5100093;28;20498;-77
2023/03/12 01:10:36;;;;;;;13.90;6.32;;;0.60;99.90;;;;;;5100086;28;20040;-77
2023/03/12 01:13:02;;;;;;;13.73;6.50;;;0.60;99.90;;;;;;5100614;28;20411;-76
2023/03/12 01:15:28;;;;;;;13.03;6.37;;;0.60;99.90;;;;;;5100055;28;20046;-76
2023/03/12 01:17:53;;;;;;;15.15;6.45;;;0.70;99.90;;;;;;5081944;28;20147;-75
2023/03/12 01:20:19;;;;;;;11.93;5.63;;;0.60;99.90;;;;;;5099634;28;20135;-76
2023/03/12 01:22:45;;;;;;;10.17;5.10;;;0.60;99.90;;;;;;5099801;28;20044;-76
2023/03/12 01:25:11;;;;;;;9.53;5.20;;;0.60;99.90;;;;;;5099745;28;20110;-77
2023/03/12 01:27:36;;;;;;;12.90;5.70;;;0.50;99.90;;;;;;5099827;28;20054;-76
2023/03/12 01:30:04;;;;;;;13.00;5.20;;;0.60;99.90;;;;;;5099645;28;20122;-76
2023/03/12 01:32:29;;;;;;;11.15;5.50;;;0.60;99.90;;;;;;5099669;28;20044;-77
2023/03/12 01:34:57;;;;;;;10.80;5.10;;;0.60;99.90;;;;;;5099612;28;20098;-76
2023/03/12 01:37:22;;;;;;;16.25;5.85;;;0.60;99.90;;;;;;5099621;28;20051;-76
2023/03/12 01:39:48;;;;;;;13.00;6.10;;;0.70;99.90;;;;;;5095229;28;20048;-77
2023/03/12 01:42:15;;;;;;;14.90;5.45;;;0.70;99.90;;;;;;5096306;28;20052;-77
2023/03/12 01:45:27;;;;;;;20.00;6.20;;;0.70;99.90;;;;;;5096881;28;20067;-77
2023/03/12 01:47:53;;;;;;;23.38;7.95;;;0.70;99.90;;;;;;5074653;28;20059;-77
2023/03/12 01:50:19;;;;;;;18.57;8.10;;;0.80;99.90;;;;;;5096217;28;20413;-77
2023/03/12 01:52:44;;;;;;;21.40;7.93;;;0.80;99.90;;;;;;5095841;28;20060;-75
2023/03/12 01:55:13;;;;;;;16.97;6.60;;;0.80;99.90;;;;;;5096647;28;20052;-77
2023/03/12 01:57:51;;;;;;;16.30;7.03;;;0.80;99.90;;;;;;5096597;28;20044;-76
2023/03/12 02:00:21;;;;;;;18.50;6.35;;;0.90;99.90;;;;;;5096003;28;20097;-76
2023/03/12 02:02:48;;;;;;;14.52;6.30;;;0.90;99.90;;;;;;5096522;28;20044;-76
2023/03/12 02:05:13;;;;;;;12.65;5.63;;;0.80;99.90;;;;;;5095928;28;20480;-77
2023/03/12 02:07:40;;;;;;;9.20;5.03;;;0.90;99.90;;;;;;5096452;28;20048;-76
2023/03/12 02:10:06;;;;;;;13.15;4.75;;;0.90;99.90;;;;;;5095894;28;20052;-77
2023/03/12 02:12:31;;;;;;;12.15;4.90;;;0.90;99.90;;;;;;5094499;28;20542;-76
2023/03/12 02:14:57;;;;;;;10.53;5.07;;;1.00;99.90;;;;;;5096014;28;20040;-77
2023/03/12 02:17:23;;;;;;;10.47;5.00;;;0.90;99.90;;;;;;5095610;28;20044;-76
2023/03/12 02:19:54;;;;;;;11.70;5.47;;;1.00;99.90;;;;;;5095971;28;20054;-76
2023/03/12 02:22:21;;;;;;;10.25;5.15;;;1.00;99.90;;;;;;5095547;28;20089;-76
2023/03/12 02:25:00;;;;;;;11.95;5.35;;;1.00;99.90;;;;;;5096110;28;20054;-76
2023/03/12 02:27:27;;;;;;;12.45;6.28;;;1.00;99.90;;;;;;5096079;28;20051;-76
2023/03/12 02:29:52;;;;;;;11.93;5.80;;;0.90;99.90;;;;;;5095474;28;20139;-76
2023/03/12 02:32:31;;;;;;;13.00;6.53;;;1.10;99.90;;;;;;5095439;28;20134;-77
2023/03/12 02:34:59;;;;;;;13.27;6.65;;;1.10;99.90;;;;;;5094525;28;20056;-77
2023/03/12 02:37:24;;;;;;;12.57;6.57;;;1.10;99.90;;;;;;5094504;28;20438;-77
2023/03/12 02:40:19;;;;;;;10.47;6.10;;;1.10;99.90;;;;;;5095776;28;20044;-77
2023/03/12 02:42:44;;;;;;;12.05;6.00;;;1.20;99.90;;;;;;5087516;28;20048;-76
2023/03/12 02:45:10;;;;;;;12.50;6.40;;;1.20;99.90;;;;;;5094868;28;20051;-76
2023/03/12 02:47:36;;;;;;;25.20;6.83;;;1.10;99.90;;;;;;5094345;28;20047;-76
2023/03/12 02:50:02;;;;;;;8.93;5.90;;;1.20;99.90;;;;;;5094788;28;20460;-76
2023/03/12 02:52:34;;;;;;;10.20;5.28;;;1.10;99.90;;;;;;5095278;28;20040;-75
2023/03/12 02:55:00;;;;;;;10.25;5.07;;;1.10;99.90;;;;;;5095310;28;20381;-76
2023/03/12 02:57:26;;;;;;;11.65;5.20;;;1.10;99.90;;;;;;5094020;28;20051;-76
2023/03/12 02:59:52;;;;;;;8.63;4.60;;;1.10;99.90;;;;;;5076925;28;20040;-76
2023/03/12 03:02:17;;;;;;;8.73;5.20;;;1.10;99.90;;;;;;5095171;28;20395;-76
2023/03/12 03:04:43;;;;;;;9.07;4.60;;;1.10;99.90;;;;;;5095087;28;20094;-76
2023/03/12 03:07:09;;;;;;;9.13;4.80;;;1.10;99.90;;;;;;5093400;28;20452;-76
2023/03/12 03:09:34;;;;;;;9.07;5.07;;;1.20;99.90;;;;;;5094715;28;20044;-77
2023/03/12 03:12:00;;;;;;;8.53;4.97;;;1.10;99.90;;;;;;5094990;28;20040;-77
2023/03/12 03:14:26;;;;;;;9.70;5.07;;;1.20;99.90;;;;;;5094523;28;20472;-77
2023/03/12 03:16:51;;;;;;;10.83;5.57;;;1.10;99.90;;;;;;5094641;28;20108;-77
2023/03/12 03:19:17;;;;;;;11.03;5.40;;;1.10;99.90;;;;;;5095324;28;20050;-77
2023/03/12 03:21:46;;;;;;;10.13;4.70;;;1.10;99.90;;;;;;5093227;28;20473;-77
2023/03/12 03:24:11;;;;;;;10.90;5.28;;;1.20;99.90;;;;;;5095233;28;20067;-77
2023/03/12 03:26:37;;;;;;;8.23;4.63;;;1.20;99.90;;;;;;5093941;28;20460;-77
2023/03/12 03:29:03;;;;;;;9.17;4.10;;;1.20;99.90;;;;;;5094395;28;20052;-77
2023/03/12 03:31:32;;;;;;;10.85;4.10;;;1.10;99.90;;;;;;5094275;28;20063;-77
2023/03/12 03:33:58;;;;;;;9.52;4.25;;;1.20;99.90;;;;;;5094298;28;20525;-77
2023/03/12 03:36:23;;;;;;;8.20;3.53;;;1.10;99.90;;;;;;5093046;28;20083;-77
2023/03/12 03:38:49;;;;;;;9.67;4.33;;;1.20;99.90;;;;;;5094220;28;20039;-77
2023/03/12 03:41:19;;;;;;;10.40;4.53;;;1.20;99.90;;;;;;5094894;28;20082;-77
2023/03/12 03:43:46;;;;;;;11.55;4.15;;;1.20;99.90;;;;;;5094930;28;20083;-77
2023/03/12 03:46:13;;;;;;;7.75;3.63;;;1.20;99.90;;;;;;5094085;28;20087;-77
2023/03/12 03:48:39;;;;;;;7.57;4.10;;;1.20;99.90;;;;;;5093293;28;20040;-77
2023/03/12 03:51:07;;;;;;;13.30;4.30;;;1.20;99.90;;;;;;5093920;28;20123;-76
2023/03/12 03:53:33;;;;;;;7.68;4.63;;;1.20;99.90;;;;;;5093620;28;20487;-76
2023/03/12 03:56:07;;;;;;;9.30;3.92;;;1.20;99.90;;;;;;5094182;28;20074;-76
2023/03/12 03:58:33;;;;;;;10.68;3.72;;;1.20;99.90;;;;;;5092755;28;20127;-76
2023/03/12 04:00:59;;;;;;;9.03;4.13;;;1.20;99.90;;;;;;5092371;28;20132;-76
2023/03/12 04:03:25;;;;;;;11.90;4.07;;;1.20;99.90;;;;;;5093215;28;20043;-76
2023/03/12 04:05:56;;;;;;;12.37;4.43;;;1.20;99.90;;;;;;5094111;28;20044;-76
2023/03/12 04:08:21;;;;;;;9.38;3.88;;;1.20;99.90;;;;;;5092986;28;20048;-76
2023/03/12 04:10:47;;;;;;;8.17;4.47;;;1.20;99.90;;;;;;5093732;28;20054;-76
2023/03/12 04:13:13;;;;;;;10.47;4.10;;;1.10;99.90;;;;;;5092397;28;20039;-76
2023/03/12 04:15:45;;;;;;;8.50;3.80;;;1.20;99.90;;;;;;5094178;28;20131;-76
2023/03/12 04:18:11;;;;;;;12.63;4.30;;;1.20;99.90;;;;;;5093644;28;20101;-76
2023/03/12 04:20:37;;;;;;;13.47;5.17;;;1.20;99.90;;;;;;5094277;28;20048;-76
2023/03/12 04:23:02;;;;;;;8.73;3.90;;;1.20;99.90;;;;;;5093351;28;20055;-76
2023/03/12 04:25:28;;;;;;;9.97;4.37;;;1.20;99.90;;;;;;5093269;28;20180;-76
2023/03/12 04:27:54;;;;;;;8.70;4.13;;;1.20;99.90;;;;;;5092591;28;20051;-77
2023/03/12 04:30:19;;;;;;;13.60;4.23;;;1.20;99.90;;;;;;5093199;28;20067;-77
2023/03/12 04:32:45;;;;;;;8.03;3.87;;;1.10;99.90;;;;;;5092271;28;20134;-77
2023/03/12 04:35:11;;;;;;;10.77;4.30;;;1.20;99.90;;;;;;5092429;28;20080;-77
2023/03/12 04:37:36;;;;;;;8.20;4.57;;;1.20;99.90;;;;;;5093946;28;20055;-77
2023/03/12 04:40:06;;;;;;;12.37;4.27;;;1.20;99.90;;;;;;5093096;28;20044;-77
2023/03/12 04:42:34;;;;;;;9.20;4.38;;;1.20;99.90;;;;;;5093256;28;20097;-77
2023/03/12 04:45:00;;;;;;;9.20;4.00;;;1.20;99.90;;;;;;5093305;28;20040;-77
2023/03/12 04:47:25;;;;;;;8.33;4.27;;;1.20;99.90;;;;;;5092567;28;20044;-78
2023/03/12 04:49:51;;;;;;;9.30;3.90;;;1.20;99.90;;;;;;5091964;28;20373;-77
2023/03/12 04:52:17;;;;;;;7.80;4.43;;;1.20;99.90;;;;;;5093520;28;20075;-77
2023/03/12 04:54:43;;;;;;;10.43;3.77;;;1.20;99.90;;;;;;5091522;28;20492;-77
2023/03/12 04:57:09;;;;;;;8.35;3.97;;;1.20;99.90;;;;;;5093204;28;20412;-77
2023/03/12 04:59:35;;;;;;;12.48;4.80;;;1.20;99.90;;;;;;5092859;28;20461;-77
2023/03/12 05:02:01;;;;;;;9.43;4.63;;;1.30;99.90;;;;;;5093330;28;20040;-77
2023/03/12 05:04:26;;;;;;;12.23;4.10;;;1.20;99.90;;;;;;5092196;28;20048;-77
2023/03/12 05:06:52;;;;;;;9.73;4.00;;;1.20;99.90;;;;;;5093133;28;20044;-77
2023/03/12 05:09:18;;;;;;;11.77;4.17;;;1.20;99.90;;;;;;5093090;28;20465;-77
2023/03/12 05:11:43;;;;;;;8.33;4.20;;;1.20;99.90;;;;;;5093152;28;20400;-77
2023/03/12 05:14:12;;;;;;;8.27;4.50;;;1.30;99.90;;;;;;5095556;28;20048;-77
2023/03/12 05:16:38;;;;;;;11.80;3.92;;;1.20;99.90;;;;;;5096764;28;20476;-77
2023/03/12 05:19:04;;;;;;;10.00;4.07;;;1.20;99.90;;;;;;5096715;28;20047;-76
2023/03/12 05:21:30;;;;;;;8.88;3.92;;;1.20;99.90;;;;;;5096678;28;20080;-77
2023/03/12 05:23:56;;;;;;;10.00;4.43;;;1.20;99.90;;;;;;5096999;28;20090;-76
2023/03/12 05:26:30;;;;;;;10.27;5.17;;;1.20;99.90;;;;;;5096705;28;20574;-76
2023/03/12 05:28:57;;;;;;;9.43;4.20;;;1.20;99.90;;;;;;5096511;28;20059;-76
2023/03/12 05:31:23;;;;;;;8.55;4.50;;;1.40;99.90;;;;;;5097204;28;20044;-76
2023/03/12 05:33:49;;;;;;;9.20;3.90;;;1.20;99.90;;;;;;5095201;28;20052;-76
2023/03/12 05:36:15;;;;;;;8.65;3.72;;;1.20;99.90;;;;;;5095605;28;20048;-77
2023/03/12 05:38:41;;;;;;;10.60;3.73;;;1.30;99.90;;;;;;5096500;28;20495;-78
2023/03/12 05:41:15;;;;;;;11.95;4.35;;;1.20;99.90;;;;;;5095144;28;20100;-75
2023/03/12 05:43:41;;;;;;;9.13;4.15;;;1.20;99.90;;;;;;5096911;28;20384;-75
2023/03/12 05:46:08;;;;;;;7.88;3.78;;;1.20;99.90;;;;;;5095304;28;20399;-75
2023/03/12 05:48:34;;;;;;;11.73;4.00;;;1.20;99.90;;;;;;5096256;28;20044;-75
2023/03/12 05:51:00;;;;;;;9.80;4.67;;;1.20;99.90;;;;;;5095911;28;20052;-75
2023/03/12 05:53:26;;;;;;;11.63;3.83;;;1.20;99.90;;;;;;5094931;28;20052;-75
2023/03/12 05:55:52;;;;;;;11.18;3.75;;;1.20;99.90;;;;;;5095916;28;20127;-76
2023/03/12 05:58:17;;;;;;;11.33;5.40;;;1.10;99.90;;;;;;5095889;28;20131;-75
2023/03/12 06:00:44;;;;;;;11.90;4.47;;;1.30;99.90;;;;;;5095946;28;20071;-75
2023/03/12 06:03:10;;;;;;;10.32;4.15;;;1.30;99.90;;;;;;5095911;28;20044;-75
2023/03/12 06:05:37;;;;;;;12.45;4.65;;;1.30;99.90;;;;;;5094904;28;20059;-75
2023/03/12 06:08:03;;;;;;;9.23;4.47;;;1.30;99.90;;;;;;5095978;28;20052;-76
2023/03/12 06:10:29;;;;;;;9.48;4.25;;;1.30;99.90;;;;;;5078844;28;20097;-76
2023/03/12 06:12:56;;;;;;;9.70;4.53;;;1.30;99.90;;;;;;5096053;28;20040;-76
2023/03/12 06:15:21;;;;;;;13.88;4.38;;;1.30;99.90;;;;;;5095740;28;20282;-76
2023/03/12 06:17:47;;;;;;;10.33;4.30;;;1.30;99.90;;;;;;5095684;28;20047;-75
2023/03/12 06:20:13;;;;;;;11.53;4.87;;;1.40;99.90;;;;;;5094944;28;20052;-75
2023/03/12 06:22:39;;;;;;;11.13;4.68;;;1.30;99.90;;;;;;5095549;28;20055;-76
2023/03/12 06:25:05;;;;;;;10.70;4.67;;;1.30;99.90;;;;;;5094808;28;20511;-75
2023/03/12 06:27:31;;;;;;;11.80;4.57;;;1.40;99.90;;;;;;5095562;28;20043;-76
2023/03/12 06:29:57;;;;;;;10.32;4.40;;;1.50;99.90;;;;;;5095481;28;20044;-76
2023/03/12 06:32:23;;;;;;;12.33;4.40;;;1.40;99.90;;;;;;5095419;28;20051;-76
2023/03/12 06:34:49;;;;;;;12.63;4.77;;;1.40;99.90;;;;;;5094408;28;20105;-76
2023/03/12 06:37:15;;;;;;;9.60;4.30;;;1.40;99.90;;;;;;5095830;28;20036;-76
2023/03/12 06:39:40;;;;;;;9.27;4.57;;;1.40;99.90;;;;;;5077416;28;20043;-76
2023/03/12 06:42:06;;;;;;;9.63;4.33;;;1.40;99.90;;;;;;5095136;28;20491;-76
2023/03/12 06:44:32;;;;;;;12.57;4.63;;;1.40;99.90;;;;;;5077615;28;20047;-76
2023/03/12 06:46:58;;;;;;;13.23;4.53;;;1.40;99.90;;;;;;5077330;28;20048;-76
2023/03/12 06:49:24;;;;;;;9.37;5.43;;;1.40;99.90;;;;;;5094150;28;20043;-75
2023/03/12 06:51:50;;;;;;;15.05;5.60;;;1.50;99.90;;;;;;5095083;28;20357;-76
2023/03/12 06:54:16;;;;;;;14.27;5.23;;;1.40;99.90;;;;;;5095724;28;20452;-75
2023/03/12 06:56:42;;;;;;;9.87;5.40;;;1.40;99.90;;;;;;5094237;28;20051;-75
2023/03/12 06:59:08;;;;;;;10.50;5.37;;;1.40;99.90;;;;;;5094845;28;20819;-76
2023/03/12 07:01:33;;;;;;;11.73;5.68;;;1.40;99.90;;;;;;5093558;28;20047;-75
2023/03/12 07:03:59;;;;;;;9.73;5.17;;;1.40;99.90;;;;;;5094766;28;20040;-75
2023/03/12 07:06:25;;;;;;;16.30;5.40;;;1.50;99.90;;;;;;5093801;28;20472;-75
2023/03/12 07:08:52;;;;;;;9.70;5.50;;;1.40;99.90;;;;;;5094730;28;20043;-75
2023/03/12 07:11:18;;;;;;;8.98;5.50;;;1.40;99.90;;;;;;5095455;28;20447;-75
2023/03/12 07:13:44;;;;;;;12.50;5.63;;;1.40;99.90;;;;;;5094658;28;20086;-75
2023/03/12 07:16:10;;;;;;;10.33;5.83;;;1.40;99.90;;;;;;5093929;28;20108;-76
2023/03/12 07:18:36;;;;;;;12.50;6.05;;;1.40;99.90;;;;;;5094619;28;20055;-75
2023/03/12 07:21:02;;;;;;;14.05;6.03;;;1.30;99.90;;;;;;5094598;28;20047;-76
2023/03/12 07:23:28;;;;;;;11.85;6.13;;;1.30;99.90;;;;;;5094257;28;20460;-75
2023/03/12 07:25:53;;;;;;;10.83;6.03;;;1.30;99.90;;;;;;5093166;28;20051;-75
2023/03/12 07:28:21;;;;;;;13.43;6.17;;;1.50;99.90;;;;;;5094439;28;20487;-75
2023/03/12 07:30:49;;;;;;;13.40;6.55;;;1.30;99.90;;;;;;5094337;28;20090;-75
2023/03/12 07:33:18;;;;;;;10.82;5.97;;;1.30;99.90;;;;;;5094273;28;20052;-75
2023/03/12 07:35:46;;;;;;;13.77;6.35;;;1.40;99.90;;;;;;5094076;28;20087;-74
2023/03/12 07:38:12;;;;;;;13.52;6.78;;;1.40;99.90;;;;;;5075353;28;20563;-74
2023/03/12 07:40:38;;;;;;;12.50;5.90;;;1.30;99.90;;;;;;5094132;28;20046;-74
2023/03/12 07:43:09;;;;;;;13.40;6.30;;;1.30;99.90;;;;;;5094146;28;20044;-74
2023/03/12 07:45:38;;;;;;;13.95;7.07;;;1.40;99.90;;;;;;5094907;28;20130;-74
2023/03/12 07:48:05;;;;;;;13.82;7.18;;;1.40;99.90;;;;;;5093039;28;20085;-74
2023/03/12 07:50:31;;;;;;;14.88;7.32;;;1.40;99.90;;;;;;5094837;28;20122;-74
2023/03/12 07:52:57;;;;;;;11.35;7.00;;;1.40;99.90;;;;;;5093995;28;20051;-74
2023/03/12 07:55:23;;;;;;;14.90;7.43;;;1.40;99.90;;;;;;5094387;28;20048;-73
2023/03/12 07:57:49;;;;;;;15.60;6.80;;;1.40;99.90;;;;;;5094424;28;20387;-74
2023/03/12 08:00:15;;;;;;;13.57;6.87;;;1.50;99.90;;;;;;5093922;28;20127;-74
2023/03/12 08:02:41;;;;;;;14.23;7.72;;;1.50;99.90;;;;;;5093826;28;20710;-74
2023/03/12 08:05:08;;;;;;;15.90;7.40;;;1.40;99.90;;;;;;5093841;28;20047;-74
2023/03/12 08:07:34;;;;;;;14.55;7.43;;;1.50;99.90;;;;;;5094135;28;20119;-74
2023/03/12 08:10:02;;;;;;;12.88;7.68;;;1.50;99.90;;;;;;5092482;28;20457;-73
2023/03/12 08:12:28;;;;;;;13.25;7.78;;;1.50;99.90;;;;;;5093764;28;20044;-73
2023/03/12 08:14:54;;;;;;;19.60;8.30;;;1.50;99.90;;;;;;5075892;28;20044;-72
2023/03/12 08:17:20;;;;;;;12.32;7.63;;;1.50;99.90;;;;;;5094225;28;20051;-71
2023/03/12 08:19:45;;;;;;;14.13;8.15;;;1.50;99.90;;;;;;5094254;28;20512;-72
2023/03/12 08:22:11;;;;;;;19.13;8.00;;;1.60;99.90;;;;;;5093488;28;20043;-72
2023/03/12 08:24:37;;;;;;;16.07;8.47;;;1.60;99.90;;;;;;5094424;28;20036;-72
2023/03/12 08:27:03;;;;;;;12.63;8.57;;;1.60;99.90;;;;;;5093644;28;20434;-72
2023/03/12 08:29:28;;;;;;;18.33;8.97;;;1.60;99.90;;;;;;5093616;28;20052;-72
2023/03/12 08:31:55;;;;;;;15.67;8.70;;;1.60;99.90;;;;;;5094182;28;20040;-70
2023/03/12 08:34:21;;;;;;;17.70;10.73;;;1.60;99.90;;;;;;5093733;28;20083;-73
2023/03/12 08:36:46;;;;;;;15.93;9.97;;;1.60;99.90;;;;;;5093602;28;20095;-73
2023/03/12 08:39:12;;;;;;;19.80;9.97;;;1.60;99.90;;;;;;5092230;28;20370;-74
2023/03/12 08:41:38;;;;;;;17.33;10.90;;;1.60;99.90;;;;;;5093973;28;20081;-73
2023/03/12 08:44:04;;;;;;;14.57;10.73;;;1.70;99.90;;;;;;5093478;28;20040;-74
2023/03/12 08:46:29;;;;;;;17.67;11.23;;;1.70;99.90;;;;;;5093457;28;20079;-74
2023/03/12 08:48:55;;;;;;;18.03;11.17;;;1.70;99.90;;;;;;5095786;28;20056;-74
2023/03/12 08:51:21;;;;;;;16.70;11.00;;;1.70;99.90;;;;;;5098065;28;20086;-74
2023/03/12 08:53:47;;;;;;;18.40;10.70;;;1.80;99.90;;;;;;5097256;28;20097;-74
2023/03/12 08:56:12;;;;;;;20.13;11.27;;;1.80;99.90;;;;;;5097158;28;20123;-74
2023/03/12 08:58:38;;;;;;;18.73;11.83;;;1.80;99.90;;;;;;5097426;28;20040;-74
2023/03/12 09:01:09;;;;;;;18.30;10.47;;;1.80;99.90;;;;;;5097208;28;20044;-74
2023/03/12 09:03:35;;;;;;;19.10;11.98;;;1.90;99.90;;;;;;5096229;28;20469;-75
2023/03/12 09:06:14;;;;;;;18.37;11.03;;;1.90;99.90;;;;;;5097762;28;20075;-75
2023/03/12 09:08:40;;;;;;;17.30;11.63;;;1.90;99.90;;;;;;5097208;28;20058;-77
2023/03/12 09:11:11;;;;;;;17.07;11.13;;;2.00;99.90;;;;;;5097609;28;20044;-75
2023/03/12 09:13:37;;;;;;;16.63;10.55;;;1.90;99.90;;;;;;5097617;28;20085;-75
2023/03/12 09:16:04;;;;;;;19.02;11.45;;;2.00;99.90;;;;;;5096846;28;20051;-75
2023/03/12 09:18:30;;;;;;;16.50;11.40;;;2.00;99.90;;;;;;5096801;28;20048;-75
2023/03/12 09:20:56;;;;;;;18.77;12.55;;;2.00;99.90;;;;;;5096919;28;20051;-77
2023/03/12 09:23:23;;;;;;;17.33;10.90;;;2.10;99.90;;;;;;5096943;28;20044;-75
2023/03/12 09:25:49;;;;;;;16.15;11.30;;;2.00;99.90;;;;;;5095983;28;20044;-75
2023/03/12 09:28:15;;;;;;;16.95;11.88;;;2.10;99.90;;;;;;5096874;28;20130;-75
2023/03/12 09:30:41;;;;;;;18.30;11.93;;;2.00;99.90;;;;;;5096695;28;20079;-74
2023/03/12 09:33:07;;;;;;;19.13;11.70;;;2.10;99.90;;;;;;5096738;28;20048;-74
2023/03/12 09:35:33;;;;;;;17.52;11.88;;;2.10;99.90;;;;;;5098998;28;20395;-74
2023/03/12 09:37:59;;;;;;;15.60;11.23;;;2.10;99.90;;;;;;5097536;28;20044;-75
2023/03/12 09:40:28;;;;;;;16.77;10.53;;;2.10;99.90;;;;;;5095554;28;20522;-74
2023/03/12 09:43:01;;;;;;;17.65;11.02;;;2.20;99.90;;;;;;5097140;28;20048;-74
2023/03/12 09:45:35;;;;;;;15.50;11.18;;;2.20;99.90;;;;;;5096605;28;20051;-74
2023/03/12 09:48:04;;;;;;;14.30;10.50;;;2.20;99.90;;;;;;5097398;28;20047;-76
2023/03/12 09:50:39;;;;;;;13.02;10.48;;;2.30;99.90;;;;;;5097114;28;20048;-74
2023/03/12 09:53:04;;;;;;;;;;;2.30;99.90;;;;;;5097455;28;20048;-74
2023/03/12 09:55:44;;;;;;;18.00;10.23;;;2.30;99.90;;;;;;5096264;28;20010;-75
2023/03/12 09:58:37;;;;;;;16.02;10.10;;;2.30;99.90;;;;;;5096928;28;20047;-74
2023/03/12 10:01:27;;;;;;;15.77;10.15;;;2.30;99.90;;;;;;5093079;28;20114;-75
2023/03/12 10:04:17;;;;;;;15.80;10.55;;;2.40;99.90;;;;;;5096556;28;20500;-76
2023/03/12 10:07:04;;;;;;;14.52;9.88;;;2.40;99.90;;;;;;5095891;28;20488;-76
2023/03/12 10:09:48;;;;;;;17.35;11.02;;;2.50;99.90;;;;;;5096802;28;20491;-76
2023/03/12 10:12:20;;;;;;;15.07;10.85;;;2.50;99.90;;;;;;5095213;28;20043;-77
2023/03/12 10:14:56;;;;;;;16.85;10.98;;;2.60;99.90;;;;;;5096931;28;20048;-76
2023/03/12 10:17:51;;;;;;;16.98;10.95;;;2.60;99.90;;;;;;5096871;28;20052;-77
2023/03/12 10:20:28;;;;;;;19.38;11.57;;;2.70;99.90;;;;;;5096528;28;20044;-76
2023/03/12 10:23:05;;;;;;;21.67;11.13;;;2.70;99.90;;;;;;5096149;28;20052;-74
2023/03/12 10:26:02;;;;;;;16.50;11.10;;;2.70;99.90;;;;;;5096719;28;20048;-75
2023/03/12 10:28:36;;;;;;;19.80;12.00;;;2.80;99.90;;;;;;5095809;28;20071;-79
2023/03/12 10:31:12;;;;;;;18.13;11.95;;;2.80;99.90;;;;;;5095785;28;20043;-79
2023/03/12 10:33:43;;;;;;;18.77;11.15;;;2.90;99.90;;;;;;5096510;28;20050;-78
2023/03/12 10:36:19;;;;;;;19.20;12.43;;;2.90;99.90;;;;;;5096399;28;20076;-78
2023/03/12 10:38:47;;;;;;;21.38;12.77;;;3.00;99.90;;;;;;5095628;28;20087;-80
2023/03/12 10:41:22;;;;;;;22.15;12.80;;;3.00;99.90;;;;;;5095384;28;20043;-78
2023/03/12 10:43:48;;;;;;;20.87;12.97;;;3.00;99.90;;;;;;5095050;28;20364;-80
2023/03/12 10:46:34;;;;;;;26.30;14.27;;;3.10;99.90;;;;;;5095370;28;20270;-80
2023/03/12 10:49:22;;;;;;;19.70;14.68;;;3.10;99.90;;;;;;5095415;28;20072;-75
2023/03/12 10:52:04;;;;;;;21.98;12.98;;;3.10;99.90;;;;;;5096063;28;20127;-77
2023/03/12 10:54:36;;;;;;;23.48;14.30;;;3.10;99.90;;;;;;5095261;28;20081;-78
2023/03/12 10:57:03;;;;;;;23.08;14.77;;;3.20;99.90;;;;;;5077717;28;20044;-79
2023/03/12 10:59:33;;;;;;;25.15;15.48;;;3.30;99.90;;;;;;5095913;28;20055;-74
2023/03/12 11:02:00;;;;;;;20.20;14.02;;;3.30;99.90;;;;;;5095598;28;20048;-75
2023/03/12 11:04:32;;;;;;;27.38;15.95;;;3.30;99.90;;;;;;5094959;28;20079;-74
2023/03/12 11:07:22;;;;;;;23.20;15.07;;;3.40;99.90;;;;;;5094962;28;20092;-80
2023/03/12 11:10:02;;;;;;;28.88;16.00;;;3.50;99.90;;;;;;5093706;28;20104;-74
2023/03/12 11:12:30;;;;;;;26.25;16.63;;;3.50;99.90;;;;;;5094050;28;20036;-78
2023/03/12 11:14:56;;;;;;;23.55;16.00;;;3.60;99.90;;;;;;5094793;28;20143;-77
2023/03/12 11:17:25;;;;;;;25.13;16.35;;;3.60;99.90;;;;;;5094694;28;20058;-76
2023/03/12 11:19:51;;;;;;;28.80;18.80;;;3.60;99.90;;;;;;5094352;28;20058;-76
2023/03/12 11:22:34;;;;;;;24.90;17.48;;;3.70;99.90;;;;;;5094896;28;20539;-78
2023/03/12 11:25:01;;;;;;;35.50;19.50;;;3.70;99.90;;;;;;5076551;28;20059;-78
2023/03/12 11:27:39;;;;;;;33.33;19.30;;;3.70;99.90;;;;;;5094528;28;20044;-76
2023/03/12 11:30:09;;;;;;;31.23;17.88;;;3.80;99.90;;;;;;5093556;28;20083;-74
2023/03/12 11:32:40;;;;;;;36.63;21.70;;;3.80;99.90;;;;;;5094576;28;20081;-75
2023/03/12 11:35:11;;;;;;;39.17;22.17;;;4.00;99.90;;;;;;5094516;28;20105;-76
2023/03/12 11:37:42;;;;;;;42.65;21.75;;;4.10;99.90;;;;;;5094404;28;20074;-79
2023/03/12 11:40:36;;;;;;;38.17;22.38;;;4.20;99.90;;;;;;5094255;28;20052;-78
2023/03/12 11:43:02;;;;;;;35.80;21.08;;;4.30;99.90;;;;;;5094424;28;20435;-81
2023/03/12 11:45:30;;;;;;;38.83;23.70;;;4.30;99.90;;;;;;5094270;28;20051;-77
2023/03/12 11:48:12;;;;;;;43.50;24.50;;;4.30;99.90;;;;;;5094609;28;20067;-83
2023/03/12 11:51:03;;;;;;;37.33;22.90;;;4.50;99.90;;;;;;5094193;28;20052;-78
2023/03/12 11:53:39;;;;;;;39.58;23.10;;;4.50;99.90;;;;;;5094119;28;20060;-76
2023/03/12 11:56:32;;;;;;;45.75;25.92;;;4.50;99.90;;;;;;5094185;28;20052;-75
2023/03/12 11:59:26;;;;;;;42.33;24.45;;;4.50;99.90;;;;;;5094017;28;20051;-77
2023/03/12 12:02:22;;;;;;;54.20;27.52;;;4.60;99.90;;;;;;5093812;28;20126;-77
2023/03/12 12:05:00;;;;;;;47.38;26.80;;;4.70;99.90;;;;;;5094775;28;20118;-77
2023/03/12 12:07:38;;;;;;;49.58;26.05;;;4.70;99.90;;;;;;5093899;28;20503;-77
2023/03/12 12:10:40;;;;;;;52.75;27.13;;;4.80;99.90;;;;;;5093948;28;20476;-77
2023/03/12 12:13:18;;;;;;;65.88;29.95;;;4.90;99.90;;;;;;5094126;28;20067;-76
2023/03/12 12:16:05;;;;;;;65.25;30.58;;;5.00;99.90;;;;;;5093871;28;20055;-76
2023/03/12 12:18:59;;;;;;;64.78;29.00;;;5.10;99.90;;;;;;5094388;28;20101;-76
2023/03/12 12:21:43;;;;;;;59.33;26.52;;;5.30;99.90;;;;;;5093665;28;20066;-76
2023/03/12 12:24:40;;;;;;;61.03;26.80;;;5.50;99.90;;;;;;5092138;28;20539;-75
2023/03/12 12:27:12;;;;;;;74.93;27.35;;;5.60;99.90;;;;;;5093980;28;20066;-78
2023/03/12 12:29:53;;;;;;;66.40;26.00;;;5.70;99.90;;;;;;5093538;28;20411;-77
2023/03/12 12:32:46;;;;;;;69.32;26.48;;;5.80;99.90;;;;;;5094486;28;20048;-78
2023/03/12 12:35:32;;;;;;;76.35;25.50;;;6.00;99.90;;;;;;5093890;28;20052;-77
2023/03/12 12:38:22;;;;;;;80.45;24.80;;;6.00;99.90;;;;;;5093897;28;20438;-79
2023/03/12 12:40:54;;;;;;;60.53;21.33;;;6.10;99.90;;;;;;5062051;28;20083;-78
2023/03/12 12:43:26;;;;;;;71.18;23.10;;;6.20;99.90;;;;;;5093475;28;20079;-77
2023/03/12 12:45:56;;;;;;;68.38;21.15;;;6.20;99.90;;;;;;5093460;28;20105;-77
2023/03/12 12:48:37;;;;;;;67.82;22.88;;;6.40;99.90;;;;;;5093972;28;20385;-77
2023/03/12 12:51:04;;;;;;;48.60;17.27;;;6.40;99.90;;;;;;5093763;28;20094;-77
2023/03/12 12:53:49;;;;;;;57.65;17.27;;;6.60;99.90;;;;;;5093020;28;20164;-77
2023/03/12 12:56:53;;;;;;;58.80;14.50;;;6.60;99.90;;;;;;5093323;28;20052;-77
2023/03/12 12:59:30;;;;;;;48.33;13.55;;;6.60;99.90;;;;;;5093263;28;20052;-77